createdAt,value
2023-01-12T00:02:59.176Z,12.15
2023-01-12T00:06:04.819Z,9.35
2023-01-12T00:09:10.498Z,8.08
2023-01-12T00:12:16.498Z,8.75
2023-01-12T00:15:17.377Z,10.60
2023-01-12T00:18:03.339Z,12.13
2023-01-12T00:20:58.646Z,10.10
2023-01-12T00:24:04.738Z,9.85
2023-01-12T00:27:10.966Z,11.45
2023-01-12T00:30:15.776Z,9.30
2023-01-12T00:33:22.470Z,9.35
2023-01-12T00:36:29.494Z,16.02
2023-01-12T00:39:35.435Z,8.28
2023-01-12T00:42:58.855Z,7.22
2023-01-12T00:46:07.444Z,9.53
2023-01-12T00:49:12.816Z,10.85
2023-01-12T00:52:31.178Z,9.70
2023-01-12T00:55:27.434Z,12.60
2023-01-12T00:58:32.782Z,7.95
2023-01-12T01:01:38.908Z,8.25
2023-01-12T01:04:44.662Z,12.13
2023-01-12T01:07:50.184Z,10.82
2023-01-12T01:10:55.854Z,10.45
2023-01-12T01:14:01.330Z,7.72
2023-01-12T01:17:07.299Z,9.45
2023-01-12T01:20:12.752Z,13.13
2023-01-12T01:23:18.407Z,11.38
2023-01-12T01:26:27.006Z,10.15
2023-01-12T01:29:33.707Z,10.43
2023-01-12T01:32:38.833Z,8.08
2023-01-12T01:35:44.947Z,10.23
2023-01-12T01:38:49.634Z,12.00
2023-01-12T01:41:54.810Z,6.97
2023-01-12T01:45:03.726Z,7.90
2023-01-12T01:48:07.748Z,12.53
2023-01-12T01:51:17.647Z,10.63
2023-01-12T01:54:23.515Z,12.93
2023-01-12T01:57:29.964Z,10.48
2023-01-12T02:00:35.769Z,8.65
2023-01-12T02:03:41.711Z,9.25
2023-01-12T02:06:47.681Z,9.43
2023-01-12T02:09:53.941Z,8.53
2023-01-12T02:13:17.956Z,11.08
2023-01-12T02:16:33.311Z,9.40
2023-01-12T02:20:12.912Z,10.70
2023-01-12T02:24:03.851Z,10.13
2023-01-12T02:27:42.526Z,8.60
2023-01-12T02:31:15.320Z,9.05
2023-01-12T02:34:57.392Z,11.73
2023-01-12T02:38:36.131Z,15.08
2023-01-12T02:42:11.755Z,13.10
2023-01-12T02:45:59.859Z,8.43
2023-01-12T02:49:24.636Z,6.78
2023-01-12T02:52:31.683Z,11.85
2023-01-12T02:55:37.649Z,12.30
2023-01-12T02:58:43.286Z,8.38
2023-01-12T03:01:49.008Z,11.60
2023-01-12T03:04:55.584Z,9.63
2023-01-12T03:08:18.709Z,11.33
2023-01-12T03:11:32.597Z,15.32
2023-01-12T03:14:37.545Z,9.38
2023-01-12T03:17:57.269Z,13.18
2023-01-12T03:24:24.631Z,10.30
2023-01-12T03:27:53.347Z,7.87
2023-01-12T03:31:02.864Z,11.22
2023-01-12T03:34:08.570Z,12.47
2023-01-12T03:37:46.128Z,14.00
2023-01-12T03:40:53.900Z,9.08
2023-01-12T03:44:04.705Z,7.08
2023-01-12T03:47:18.105Z,9.23
2023-01-12T03:50:37.470Z,9.63
2023-01-12T03:53:42.995Z,9.63
2023-01-12T03:56:51.795Z,10.15
2023-01-12T03:59:51.441Z,12.07
2023-01-12T04:03:00.710Z,15.45
2023-01-12T04:06:06.097Z,7.92
2023-01-12T04:09:12.093Z,9.90
2023-01-12T04:12:18.107Z,10.18
2023-01-12T04:15:24.776Z,10.50
2023-01-12T04:18:30.258Z,16.85
2023-01-12T04:21:53.688Z,11.08
2023-01-12T04:24:59.008Z,7.35
2023-01-12T04:28:10.512Z,12.65
2023-01-12T04:31:17.153Z,13.35
2023-01-12T04:34:22.507Z,13.25
2023-01-12T04:37:28.636Z,12.00
2023-01-12T04:40:34.587Z,9.08
2023-01-12T04:43:43.141Z,9.45
2023-01-12T04:46:48.572Z,11.63
2023-01-12T04:49:53.758Z,9.40
2023-01-12T04:53:00.343Z,12.37
2023-01-12T04:56:06.513Z,9.25
2023-01-12T04:59:14.198Z,10.40
2023-01-12T05:02:12.762Z,9.75
2023-01-12T05:05:18.526Z,9.20
2023-01-12T05:08:42.310Z,7.50
2023-01-12T05:11:48.647Z,6.72
2023-01-12T05:14:54.613Z,11.05
2023-01-12T05:18:01.130Z,10.30
2023-01-12T05:21:06.940Z,10.35
2023-01-12T05:24:12.707Z,11.03
2023-01-12T05:27:19.280Z,10.63
2023-01-12T05:30:26.033Z,8.38
2023-01-12T05:33:31.948Z,8.68
2023-01-12T05:36:38.343Z,16.57
2023-01-12T05:39:44.382Z,11.93
2023-01-12T05:43:08.705Z,10.28
2023-01-12T05:46:18.880Z,10.72
2023-01-12T05:49:25.830Z,11.28
2023-01-12T05:52:31.509Z,9.30
2023-01-12T05:55:37.074Z,9.03
2023-01-12T05:58:43.275Z,9.90
2023-01-12T06:01:50.518Z,11.28
2023-01-12T06:04:56.637Z,9.20
2023-01-12T06:08:02.594Z,9.33
2023-01-12T06:11:08.227Z,10.68
2023-01-12T06:14:14.565Z,9.53
2023-01-12T06:17:13.574Z,10.53
2023-01-12T06:20:24.186Z,9.98
2023-01-12T06:23:34.936Z,11.75
2023-01-12T06:26:37.438Z,13.38
2023-01-12T06:29:43.407Z,14.45
2023-01-12T06:32:49.356Z,5.05
2023-01-12T06:35:55.304Z,9.28
2023-01-12T06:39:01.136Z,12.33
2023-01-12T06:42:25.155Z,15.23
2023-01-12T06:45:30.602Z,12.13
2023-01-12T06:48:39.001Z,7.80
2023-01-12T06:51:44.370Z,13.58
2023-01-12T06:54:43.183Z,13.08
2023-01-12T06:57:49.522Z,8.75
2023-01-12T07:00:58.412Z,7.62
2023-01-12T07:04:03.650Z,8.98
2023-01-12T07:07:12.304Z,5.25
2023-01-12T07:10:19.726Z,7.75
2023-01-12T07:13:19.308Z,8.00
2023-01-12T07:16:16.474Z,9.70
2023-01-12T07:19:22.204Z,11.20
2023-01-12T07:22:27.125Z,15.63
2023-01-12T07:25:33.141Z,13.35
2023-01-12T07:28:40.866Z,8.70
2023-01-12T07:31:48.056Z,10.63
2023-01-12T07:34:55.711Z,4.83
2023-01-12T07:38:06.757Z,9.78
2023-01-12T07:41:18.575Z,5.83
2023-01-12T07:44:27.111Z,10.13
2023-01-12T07:47:35.002Z,11.05
2023-01-12T07:50:44.117Z,9.73
2023-01-12T07:53:50.538Z,17.60
2023-01-12T07:56:57.382Z,13.43
2023-01-12T08:00:03.176Z,12.13
2023-01-12T08:03:22.540Z,11.93
2023-01-12T08:06:29.094Z,7.95
2023-01-12T08:09:39.311Z,7.50
2023-01-12T08:12:46.788Z,14.45
2023-01-12T08:15:56.884Z,9.35
2023-01-12T08:19:21.435Z,8.05
2023-01-12T08:22:30.742Z,10.13
2023-01-12T08:25:40.271Z,5.95
2023-01-12T08:31:32.668Z,12.78
2023-01-12T08:34:39.568Z,9.03
2023-01-12T08:37:38.333Z,10.18
2023-01-12T08:40:24.420Z,7.53
2023-01-12T08:43:17.766Z,16.65
2023-01-12T08:46:12.502Z,10.23
2023-01-12T08:49:25.717Z,15.68
2023-01-12T08:52:32.622Z,7.15
2023-01-12T08:55:38.054Z,12.37
2023-01-12T08:58:43.281Z,26.85
2023-01-12T09:01:49.253Z,16.75
2023-01-12T09:04:55.341Z,17.32
2023-01-12T09:08:01.143Z,8.73
2023-01-12T09:11:08.455Z,4.83
2023-01-12T09:14:13.603Z,12.07
2023-01-12T09:17:21.386Z,17.32
2023-01-12T09:20:30.070Z,19.42
2023-01-12T09:23:29.008Z,21.02
2023-01-12T09:26:38.923Z,11.78
2023-01-12T09:32:50.198Z,11.45
2023-01-12T09:35:55.051Z,20.08
2023-01-12T09:39:00.613Z,7.33
2023-01-12T09:42:24.054Z,8.65
2023-01-12T09:45:53.523Z,8.80
2023-01-12T09:49:00.139Z,11.50
2023-01-12T09:52:44.130Z,12.10
2023-01-12T09:56:08.466Z,8.50
2023-01-12T09:59:28.726Z,14.25
2023-01-12T10:02:35.268Z,6.67
2023-01-12T10:06:11.888Z,5.42
2023-01-12T10:09:18.917Z,7.90
2023-01-12T10:12:38.649Z,7.08
2023-01-12T10:15:57.296Z,7.95
2023-01-12T10:19:02.649Z,8.93
2023-01-12T10:22:08.413Z,10.98
2023-01-12T10:25:13.906Z,11.50
2023-01-12T10:28:45.976Z,6.95
2023-01-12T10:31:52.872Z,9.38
2023-01-12T10:35:05.621Z,7.22
2023-01-12T10:38:11.696Z,5.15
2023-01-12T10:41:27.458Z,5.12
2023-01-12T10:44:33.699Z,4.72
2023-01-12T10:47:39.472Z,6.75
2023-01-12T10:50:46.411Z,5.35
2023-01-12T10:54:12.128Z,5.10
2023-01-12T10:57:36.578Z,5.83
2023-01-12T11:00:42.230Z,7.65
2023-01-12T11:03:50.705Z,7.55
2023-01-12T11:07:04.802Z,6.20
2023-01-12T11:10:08.209Z,7.95
2023-01-12T11:13:19.455Z,6.53
2023-01-12T11:16:35.204Z,5.95
2023-01-12T11:19:44.988Z,6.37
2023-01-12T11:22:43.864Z,6.15
2023-01-12T11:25:38.940Z,5.58
2023-01-12T11:28:54.199Z,5.50
2023-01-12T11:31:59.651Z,6.12
2023-01-12T11:35:11.726Z,4.83
2023-01-12T11:38:26.455Z,4.72
2023-01-12T11:41:46.058Z,7.72
2023-01-12T11:48:09.309Z,5.37
2023-01-12T11:51:16.289Z,4.97
2023-01-12T11:54:24.078Z,5.00
2023-01-12T11:57:48.482Z,5.78
2023-01-12T12:01:07.909Z,5.05
2023-01-12T12:04:46.479Z,6.62
2023-01-12T12:08:11.762Z,4.60
2023-01-12T12:11:28.169Z,7.12
2023-01-12T12:14:51.935Z,5.90
2023-01-12T12:18:06.030Z,4.85
2023-01-12T12:21:48.199Z,6.45
2023-01-12T12:25:16.201Z,5.72
2023-01-12T12:28:53.913Z,8.75
2023-01-12T12:32:46.388Z,6.30
2023-01-12T12:36:10.476Z,5.85
2023-01-12T12:39:43.332Z,6.22
2023-01-12T12:43:46.615Z,6.15
2023-01-12T12:47:00.800Z,5.85
2023-01-12T12:50:07.616Z,6.03
2023-01-12T12:53:35.851Z,6.83
2023-01-12T12:56:41.650Z,5.95
2023-01-12T12:59:58.070Z,4.85
2023-01-12T13:03:09.815Z,5.15
2023-01-12T13:06:44.028Z,5.20
2023-01-12T13:09:50.906Z,4.40
2023-01-12T13:12:56.812Z,5.22
2023-01-12T13:16:02.479Z,5.62
2023-01-12T13:19:13.690Z,7.97
2023-01-12T13:25:41.711Z,5.28
2023-01-12T13:28:47.217Z,6.35
2023-01-12T13:31:52.834Z,5.50
2023-01-12T13:34:58.523Z,6.20
2023-01-12T13:38:20.340Z,4.80
2023-01-12T13:42:09.006Z,5.22
2023-01-12T13:45:15.177Z,5.08
2023-01-12T13:48:20.717Z,6.62
2023-01-12T13:51:36.131Z,5.55
2023-01-12T13:54:41.424Z,10.75
2023-01-12T13:57:48.287Z,6.15
2023-01-12T14:00:55.423Z,6.85
2023-01-12T14:04:22.388Z,8.13
2023-01-12T14:07:36.275Z,7.03
2023-01-12T14:11:19.826Z,15.08
2023-01-12T14:15:02.505Z,14.15
2023-01-12T14:18:12.696Z,9.00
2023-01-12T14:21:17.459Z,5.62
2023-01-12T14:24:34.323Z,7.28
2023-01-12T14:27:39.831Z,19.75
2023-01-12T14:30:45.555Z,11.65
2023-01-12T14:33:45.735Z,13.32
2023-01-12T14:36:59.883Z,23.87
2023-01-12T14:40:04.523Z,24.60
2023-01-12T14:43:27.747Z,20.32
2023-01-12T14:46:48.246Z,20.82
2023-01-12T14:49:53.651Z,29.72
2023-01-12T14:53:00.690Z,15.98
2023-01-12T14:56:05.917Z,19.80
2023-01-12T14:59:21.342Z,22.60
2023-01-12T15:02:36.318Z,19.35
2023-01-12T15:05:44.280Z,17.12
2023-01-12T15:08:51.229Z,17.07
2023-01-12T15:11:57.203Z,40.92
2023-01-12T15:15:02.926Z,32.55
2023-01-12T15:18:27.347Z,23.75
2023-01-12T15:21:50.820Z,13.93
2023-01-12T15:25:15.253Z,15.23
2023-01-12T15:28:22.200Z,18.57
2023-01-12T15:31:37.767Z,12.90
2023-01-12T15:34:44.438Z,6.47
2023-01-12T15:37:49.701Z,8.83
2023-01-12T15:40:57.622Z,29.87
2023-01-12T15:44:02.472Z,18.77
2023-01-12T15:47:07.929Z,18.77
2023-01-12T15:50:12.738Z,8.15
2023-01-12T15:53:19.942Z,15.05
2023-01-12T15:56:20.767Z,19.75
2023-01-12T15:59:26.426Z,20.77
2023-01-12T16:02:37.037Z,20.48
2023-01-12T16:05:42.279Z,15.03
2023-01-12T16:08:49.518Z,22.00
2023-01-12T16:11:55.820Z,8.43
2023-01-12T16:15:03.431Z,22.98
2023-01-12T16:18:08.895Z,11.73
2023-01-12T16:21:15.193Z,11.93
2023-01-12T16:24:20.086Z,10.20
2023-01-12T16:27:26.771Z,22.00
2023-01-12T16:30:33.470Z,19.77
2023-01-12T16:33:40.177Z,15.25
2023-01-12T16:36:46.308Z,27.73
2023-01-12T16:39:53.192Z,33.08
2023-01-12T16:42:58.681Z,26.10
2023-01-12T16:46:05.543Z,20.55
2023-01-12T16:49:10.678Z,21.17
2023-01-12T16:52:18.208Z,16.35
2023-01-12T16:55:24.294Z,16.42
2023-01-12T16:58:29.792Z,25.35
2023-01-12T17:01:37.169Z,18.87
2023-01-12T17:04:44.551Z,20.68
2023-01-12T17:07:50.003Z,24.65
2023-01-12T17:10:56.709Z,11.95
2023-01-12T17:14:10.331Z,28.62
2023-01-12T17:17:18.577Z,12.45
2023-01-12T17:20:27.088Z,14.65
2023-01-12T17:23:34.021Z,11.30
2023-01-12T17:26:40.114Z,16.40
2023-01-12T17:29:45.899Z,21.00
2023-01-12T17:32:51.292Z,13.32
2023-01-12T17:35:57.076Z,20.00
2023-01-12T17:39:02.854Z,32.75
2023-01-12T17:42:26.024Z,22.05
2023-01-12T17:45:32.632Z,20.97
2023-01-12T17:48:31.851Z,23.12
2023-01-12T17:51:38.919Z,16.82
2023-01-12T17:54:44.999Z,24.57
2023-01-12T17:57:51.152Z,18.20
2023-01-12T18:00:56.752Z,12.90
2023-01-12T18:04:03.383Z,34.00
2023-01-12T18:07:02.977Z,19.00
2023-01-12T18:10:09.393Z,12.45
2023-01-12T18:13:15.415Z,14.85
2023-01-12T18:16:23.285Z,21.62
2023-01-12T18:19:29.604Z,30.35
2023-01-12T18:22:36.234Z,20.70
2023-01-12T18:25:42.814Z,15.32
2023-01-12T18:28:47.809Z,16.17
2023-01-12T18:31:54.090Z,14.13
2023-01-12T18:34:59.467Z,13.53
2023-01-12T18:38:05.905Z,14.95
2023-01-12T18:41:29.738Z,21.33
2023-01-12T18:44:35.382Z,18.57
2023-01-12T18:47:59.297Z,11.65
2023-01-12T18:51:26.835Z,16.48
2023-01-12T18:54:32.489Z,22.45
2023-01-12T18:57:40.207Z,16.20
2023-01-12T19:00:45.154Z,19.62
2023-01-12T19:03:51.603Z,12.43
2023-01-12T19:07:01.744Z,13.35
2023-01-12T19:10:08.028Z,10.98
2023-01-12T19:13:31.266Z,8.60
2023-01-12T19:16:54.536Z,13.10
2023-01-12T19:20:00.724Z,8.20
2023-01-12T19:23:23.954Z,8.35
2023-01-12T19:26:50.361Z,9.85
2023-01-12T19:29:57.225Z,17.35
2023-01-12T19:33:02.754Z,23.70
2023-01-12T19:36:09.156Z,21.97
2023-01-12T19:39:16.314Z,18.17
2023-01-12T19:42:39.224Z,18.00
2023-01-12T19:45:44.778Z,16.95
2023-01-12T19:48:51.836Z,10.90
2023-01-12T19:51:58.506Z,7.87
2023-01-12T19:55:03.498Z,8.43
2023-01-12T19:58:11.679Z,8.30
2023-01-12T20:01:17.942Z,13.05
2023-01-12T20:04:24.155Z,21.52
2023-01-12T20:07:29.023Z,13.45
2023-01-12T20:10:38.867Z,9.68
2023-01-12T20:13:46.134Z,9.80
2023-01-12T20:16:53.480Z,14.87
2023-01-12T20:19:59.012Z,9.23
2023-01-12T20:23:05.116Z,10.88
2023-01-12T20:26:10.379Z,14.18
2023-01-12T20:29:16.132Z,11.78
2023-01-12T20:32:21.647Z,13.00
2023-01-12T20:35:30.398Z,11.75
2023-01-12T20:38:28.767Z,13.10
2023-01-12T20:41:34.523Z,13.68
2023-01-12T20:44:40.128Z,14.55
2023-01-12T20:47:46.689Z,18.35
2023-01-12T20:50:53.551Z,13.03
2023-01-12T20:54:00.727Z,10.80
2023-01-12T20:57:07.635Z,8.83
2023-01-12T21:00:13.975Z,15.48
2023-01-12T21:03:19.439Z,12.18
2023-01-12T21:06:28.797Z,11.28
2023-01-12T21:09:34.304Z,17.12
2023-01-12T21:12:40.214Z,18.48
2023-01-12T21:15:46.197Z,13.43
2023-01-12T21:18:52.173Z,14.73
2023-01-12T21:21:59.570Z,16.80
2023-01-12T21:25:06.070Z,18.87
2023-01-12T21:28:11.799Z,13.03
2023-01-12T21:31:18.729Z,14.40
2023-01-12T21:34:24.238Z,15.55
2023-01-12T21:37:29.885Z,10.85
2023-01-12T21:40:35.110Z,13.25
2023-01-12T21:43:41.773Z,13.65
2023-01-12T21:46:47.569Z,10.25
2023-01-12T21:49:54.428Z,16.30
2023-01-12T21:53:01.782Z,11.63
2023-01-12T21:56:12.531Z,8.58
2023-01-12T21:59:19.178Z,15.10
2023-01-12T22:02:26.131Z,16.80
2023-01-12T22:05:34.298Z,13.13
2023-01-12T22:08:40.114Z,17.62
2023-01-12T22:11:45.741Z,15.43
2023-01-12T22:14:37.672Z,17.02
2023-01-12T22:17:44.533Z,10.23
2023-01-12T22:20:50.396Z,12.40
2023-01-12T22:23:55.491Z,16.80
2023-01-12T22:27:02.120Z,13.72
2023-01-12T22:30:08.328Z,19.35
2023-01-12T22:33:14.335Z,10.82
2023-01-12T22:36:20.826Z,17.15
2023-01-12T22:39:29.405Z,13.03
2023-01-12T22:42:52.808Z,15.08
2023-01-12T22:46:01.242Z,20.15
2023-01-12T22:49:12.204Z,16.55
2023-01-12T22:52:18.518Z,9.98
2023-01-12T22:55:23.831Z,7.87
2023-01-12T22:58:29.575Z,9.00
2023-01-12T23:01:37.596Z,8.15
2023-01-12T23:04:43.764Z,13.68
2023-01-12T23:07:42.184Z,12.40
2023-01-12T23:10:34.885Z,14.45
2023-01-12T23:13:40.851Z,12.18
2023-01-12T23:16:45.867Z,11.38
2023-01-12T23:19:52.095Z,16.12
2023-01-12T23:22:58.587Z,12.80
2023-01-12T23:26:04.215Z,11.48
2023-01-12T23:29:12.676Z,12.68
2023-01-12T23:32:17.556Z,12.53
2023-01-12T23:35:24.341Z,15.40
2023-01-12T23:38:29.935Z,16.62
2023-01-12T23:41:37.059Z,17.23
2023-01-12T23:44:42.521Z,19.80
2023-01-12T23:47:47.693Z,13.78
2023-01-12T23:50:53.773Z,18.07
2023-01-12T23:53:59.677Z,12.98
2023-01-12T23:57:07.225Z,10.55
